Time;durP1;ratioP1;P1;durP2;ratioP2;P2;SDS_P1;SDS_P2;PMS_P1;PMS_P2;Temp;Humidity;BMP_temperature;BMP_pressure;BME280_temperature;BME280_humidity;BME280_pressure;Samples;Min_cycle;Max_cycle;Signal;HPM_P1;HPM_P2
2023/06/18 00:00:57;;;;;;;1.85;1.02;;;15.40;99.90;;;;;;4404498;32;20235;-75
2023/06/18 00:03:25;;;;;;;0.75;0.75;;;15.30;99.90;;;;;;4401299;32;20066;-75
2023/06/18 00:05:54;;;;;;;1.10;0.82;;;15.40;99.90;;;;;;4400368;32;20734;-75
2023/06/18 00:08:20;;;;;;;0.60;0.60;;;15.40;99.90;;;;;;4403467;32;20094;-76
2023/06/18 00:10:52;;;;;;;0.73;0.73;;;15.40;99.90;;;;;;4400164;32;20471;-76
2023/06/18 00:13:18;;;;;;;1.00;0.75;;;15.50;99.90;;;;;;4403219;32;20124;-75
2023/06/18 00:15:43;;;;;;;0.80;0.80;;;15.50;99.90;;;;;;4404638;32;20485;-75
2023/06/18 00:18:10;;;;;;;1.05;0.88;;;15.50;99.90;;;;;;4402796;32;20454;-75
2023/06/18 00:20:36;;;;;;;0.60;0.60;;;15.50;99.90;;;;;;4402846;32;20095;-74
2023/06/18 00:23:02;;;;;;;1.75;0.80;;;15.50;99.90;;;;;;4404284;32;20077;-75
2023/06/18 00:25:28;;;;;;;0.75;0.75;;;15.50;99.90;;;;;;4403434;32;20144;-75
2023/06/18 00:27:54;;;;;;;0.95;0.93;;;15.40;99.90;;;;;;4403253;32;20178;-76
2023/06/18 00:30:21;;;;;;;1.15;0.80;;;15.30;99.90;;;;;;4405764;32;20066;-74
2023/06/18 00:32:51;;;;;;;0.60;0.60;;;15.30;99.90;;;;;;4402131;32;20536;-75
2023/06/18 00:35:17;;;;;;;0.68;0.68;;;15.30;99.90;;;;;;4402984;32;20070;-74
2023/06/18 00:37:43;;;;;;;1.17;0.80;;;15.30;99.90;;;;;;4402340;32;20061;-76
2023/06/18 00:40:12;;;;;;;4.68;0.60;;;15.10;99.90;;;;;;4403542;32;20149;-75
2023/06/18 00:42:39;;;;;;;1.50;1.00;;;15.10;99.90;;;;;;4404094;32;20116;-75
2023/06/18 00:45:08;;;;;;;0.65;0.65;;;15.30;99.90;;;;;;4402947;32;20103;-75
2023/06/18 00:47:37;;;;;;;0.73;0.73;;;15.30;99.90;;;;;;4401429;32;20192;-75
2023/06/18 00:50:12;;;;;;;0.85;0.85;;;15.30;99.90;;;;;;4402225;32;20235;-74
2023/06/18 00:52:44;;;;;;;0.70;0.70;;;15.30;99.90;;;;;;4397855;32;20090;-76
2023/06/18 00:55:13;;;;;;;0.85;0.85;;;15.30;99.90;;;;;;4399028;32;20154;-77
2023/06/18 00:57:41;;;;;;;1.55;0.77;;;15.30;99.90;;;;;;4398956;32;20070;-76
2023/06/18 01:00:12;;;;;;;0.50;0.50;;;15.20;99.90;;;;;;4401322;32;20090;-77
2023/06/18 01:02:45;;;;;;;0.95;0.80;;;15.20;99.90;;;;;;4397223;32;20102;-77
2023/06/18 01:05:12;;;;;;;0.60;0.60;;;15.20;99.90;;;;;;4398530;32;20820;-76
2023/06/18 01:07:39;;;;;;;0.55;0.55;;;15.10;99.90;;;;;;4400537;32;20573;-76
2023/06/18 01:10:05;;;;;;;1.40;1.20;;;15.20;99.90;;;;;;4399452;32;20098;-77
2023/06/18 01:12:31;;;;;;;0.82;0.80;;;15.20;99.90;;;;;;4398367;32;20610;-76
2023/06/18 01:14:57;;;;;;;6.80;1.02;;;15.10;99.90;;;;;;4399435;32;20149;-76
2023/06/18 01:17:27;;;;;;;1.67;1.52;;;15.00;99.90;;;;;;4399848;32;20184;-76
2023/06/18 01:20:00;;;;;;;2.22;1.05;;;15.00;99.90;;;;;;4400562;32;20065;-76
2023/06/18 01:23:02;;;;;;;3.40;1.77;;;15.00;99.90;;;;;;4398516;32;20086;-77
2023/06/18 01:25:33;;;;;;;0.65;0.65;;;15.10;99.90;;;;;;4401098;32;20082;-77
2023/06/18 01:28:01;;;;;;;0.50;0.50;;;15.10;99.90;;;;;;4399930;32;20082;-77
2023/06/18 01:30:27;;;;;;;1.25;1.15;;;15.10;99.90;;;;;;4400428;32;20090;-77
2023/06/18 01:32:55;;;;;;;1.08;0.90;;;15.10;99.90;;;;;;4401651;32;20073;-76
2023/06/18 01:35:22;;;;;;;1.02;0.90;;;15.00;99.90;;;;;;4400311;32;20129;-76
2023/06/18 01:38:18;;;;;;;0.65;0.65;;;15.00;99.90;;;;;;4401402;32;20102;-76
2023/06/18 01:40:52;;;;;;;2.17;0.95;;;14.90;99.90;;;;;;4400375;32;20086;-76
2023/06/18 01:43:30;;;;;;;0.70;0.70;;;15.00;99.90;;;;;;4398844;32;20093;-76
2023/06/18 01:46:02;;;;;;;0.77;0.77;;;15.00;99.90;;;;;;4402003;32;20095;-75
2023/06/18 01:48:33;;;;;;;1.60;1.00;;;14.90;99.90;;;;;;4400205;32;20605;-76
2023/06/18 01:51:00;;;;;;;0.95;0.70;;;14.90;99.90;;;;;;4389244;32;20098;-76
2023/06/18 01:53:27;;;;;;;4.68;1.30;;;14.90;99.90;;;;;;4402186;32;20082;-76
2023/06/18 01:55:56;;;;;;;1.77;1.35;;;14.90;99.90;;;;;;4401095;32;20102;-77
2023/06/18 01:58:22;;;;;;;1.23;0.85;;;15.00;99.90;;;;;;4403106;32;20058;-76
2023/06/18 02:00:48;;;;;;;1.20;1.10;;;14.90;99.90;;;;;;4399050;32;20107;-76
2023/06/18 02:03:14;;;;;;;0.70;0.70;;;14.80;99.90;;;;;;4403082;32;20129;-76
2023/06/18 02:05:40;;;;;;;0.80;0.80;;;14.80;99.90;;;;;;4407058;32;20078;-76
2023/06/18 02:08:05;;;;;;;0.80;0.80;;;14.70;99.90;;;;;;4405243;32;20276;-76
2023/06/18 02:10:31;;;;;;;0.82;0.82;;;14.60;99.90;;;;;;4400162;32;20083;-75
2023/06/18 02:12:56;;;;;;;1.27;1.02;;;14.60;99.90;;;;;;4405002;32;20066;-75
2023/06/18 02:15:22;;;;;;;1.08;0.88;;;14.70;99.90;;;;;;4401826;32;20097;-75
2023/06/18 02:17:47;;;;;;;1.65;0.90;;;14.70;99.90;;;;;;4404469;32;20061;-75
2023/06/18 02:20:13;;;;;;;0.85;0.85;;;14.80;99.90;;;;;;4402246;32;20082;-75
2023/06/18 02:22:39;;;;;;;2.58;1.62;;;14.70;99.90;;;;;;4404690;32;20662;-75
2023/06/18 02:25:06;;;;;;;1.35;0.93;;;14.70;99.90;;;;;;4402018;32;20078;-75
2023/06/18 02:27:31;;;;;;;0.55;0.55;;;14.80;99.90;;;;;;4402409;32;20124;-75
2023/06/18 02:30:01;;;;;;;3.20;1.12;;;14.80;99.90;;;;;;4403903;32;20533;-76
2023/06/18 02:32:28;;;;;;;1.07;1.07;;;14.60;99.90;;;;;;4403379;32;20103;-75
2023/06/18 02:34:55;;;;;;;0.88;0.88;;;14.60;99.90;;;;;;4406576;32;20090;-76
2023/06/18 02:37:20;;;;;;;1.20;0.80;;;14.60;99.90;;;;;;4405050;32;20132;-76
2023/06/18 02:39:46;;;;;;;2.70;1.20;;;14.60;99.90;;;;;;4402295;32;20093;-76
2023/06/18 02:42:11;;;;;;;0.60;0.60;;;14.50;99.90;;;;;;4403893;32;20089;-76
2023/06/18 02:44:41;;;;;;;1.58;0.75;;;14.50;99.90;;;;;;4408481;32;20562;-76
2023/06/18 02:47:07;;;;;;;1.80;1.33;;;14.50;99.90;;;;;;4405557;32;20086;-76
2023/06/18 02:49:33;;;;;;;0.90;0.90;;;14.50;99.90;;;;;;4402987;32;20745;-76
2023/06/18 02:51:59;;;;;;;2.28;1.50;;;14.60;99.90;;;;;;4404214;32;20082;-76
2023/06/18 02:54:24;;;;;;;1.92;1.05;;;14.50;99.90;;;;;;4406641;32;20722;-76
2023/06/18 02:56:50;;;;;;;0.80;0.80;;;14.60;99.90;;;;;;4406745;32;20094;-76
2023/06/18 02:59:16;;;;;;;1.98;1.17;;;14.60;99.90;;;;;;4410283;32;20082;-76
2023/06/18 03:01:44;;;;;;;11.80;1.95;;;14.60;99.90;;;;;;4409456;32;20090;-76
2023/06/18 03:04:10;;;;;;;0.95;0.93;;;14.60;99.90;;;;;;4414045;32;20073;-76
2023/06/18 03:06:37;;;;;;;1.02;0.93;;;14.50;99.90;;;;;;4409664;32;20087;-76
2023/06/18 03:09:03;;;;;;;0.70;0.70;;;14.50;99.90;;;;;;4413042;32;20090;-77
2023/06/18 03:11:30;;;;;;;1.02;0.93;;;14.50;99.90;;;;;;4410539;32;20113;-77
2023/06/18 03:13:55;;;;;;;3.37;1.10;;;14.50;99.90;;;;;;4412742;32;20136;-77
2023/06/18 03:16:23;;;;;;;0.93;0.68;;;14.50;99.90;;;;;;4415595;32;20070;-77
2023/06/18 03:18:49;;;;;;;1.12;1.02;;;14.40;99.90;;;;;;4415138;32;20161;-77
2023/06/18 03:21:15;;;;;;;2.22;1.10;;;14.40;99.90;;;;;;4409740;32;20086;-77
2023/06/18 03:23:41;;;;;;;0.95;0.95;;;14.50;99.90;;;;;;4411061;32;20439;-77
2023/06/18 03:26:07;;;;;;;2.47;1.00;;;14.60;99.90;;;;;;4409928;32;20079;-77
2023/06/18 03:28:32;;;;;;;2.70;1.00;;;14.50;99.90;;;;;;4409774;32;20077;-77
2023/06/18 03:30:58;;;;;;;0.70;0.70;;;14.50;99.90;;;;;;4410462;32;20086;-77
2023/06/18 03:33:23;;;;;;;1.48;0.80;;;14.50;99.90;;;;;;4412265;32;20073;-77
2023/06/18 03:35:50;;;;;;;2.12;1.02;;;14.60;99.90;;;;;;4413156;32;20083;-77
2023/06/18 03:38:15;;;;;;;0.80;0.80;;;14.70;99.90;;;;;;4410302;32;20081;-77
2023/06/18 03:40:41;;;;;;;1.37;1.15;;;14.80;99.90;;;;;;4412153;32;20256;-77
2023/06/18 03:43:07;;;;;;;0.70;0.70;;;14.80;99.90;;;;;;4412089;32;20097;-77
2023/06/18 03:45:32;;;;;;;0.68;0.62;;;14.80;99.90;;;;;;4413541;32;20097;-77
2023/06/18 03:47:58;;;;;;;5.15;2.00;;;14.70;99.90;;;;;;4414790;32;20093;-77
2023/06/18 03:50:23;;;;;;;1.08;0.73;;;14.60;99.90;;;;;;4413658;32;20090;-77
2023/06/18 03:52:49;;;;;;;1.00;0.90;;;14.70;99.90;;;;;;4413310;32;20097;-77
2023/06/18 03:55:15;;;;;;;4.62;0.80;;;14.70;99.90;;;;;;4412858;32;20073;-78
2023/06/18 03:57:41;;;;;;;2.35;0.82;;;14.70;99.90;;;;;;4416941;32;20118;-78
2023/06/18 04:00:08;;;;;;;2.30;1.00;;;14.80;99.90;;;;;;4414303;32;20074;-77
2023/06/18 04:02:34;;;;;;;0.68;0.68;;;14.90;99.90;;;;;;4416050;32;20082;-77
2023/06/18 04:05:00;;;;;;;0.70;0.70;;;14.90;99.90;;;;;;4416299;32;20086;-77
2023/06/18 04:07:25;;;;;;;1.90;0.85;;;15.00;99.90;;;;;;4413104;32;20113;-77
2023/06/18 04:09:51;;;;;;;1.05;1.00;;;15.00;99.90;;;;;;4416191;32;20082;-77
2023/06/18 04:12:16;;;;;;;1.05;0.77;;;15.00;99.90;;;;;;4413024;32;20065;-77
2023/06/18 04:14:42;;;;;;;3.25;0.80;;;15.00;99.90;;;;;;4414131;32;21532;-77
2023/06/18 04:17:07;;;;;;;1.00;0.70;;;15.10;99.90;;;;;;4416288;32;20062;-77
2023/06/18 04:19:33;;;;;;;0.90;0.85;;;15.10;99.90;;;;;;4416188;32;20094;-77
2023/06/18 04:21:58;;;;;;;1.02;0.93;;;15.10;99.90;;;;;;4411642;32;20101;-77
2023/06/18 04:24:24;;;;;;;0.82;0.82;;;15.20;99.90;;;;;;4414506;32;20062;-77
2023/06/18 04:26:49;;;;;;;3.42;1.00;;;15.30;99.90;;;;;;4415817;32;20090;-77
2023/06/18 04:29:15;;;;;;;0.90;0.90;;;15.30;99.90;;;;;;4412540;32;20098;-77
2023/06/18 04:31:41;;;;;;;2.00;1.15;;;15.40;99.90;;;;;;4411030;32;20102;-77
2023/06/18 04:34:07;;;;;;;0.98;0.90;;;15.40;99.90;;;;;;4412989;32;20083;-77
2023/06/18 04:36:33;;;;;;;2.53;1.25;;;15.50;99.90;;;;;;4411842;32;20099;-76
2023/06/18 04:38:59;;;;;;;0.82;0.82;;;15.60;99.90;;;;;;4410398;32;20129;-77
2023/06/18 04:41:25;;;;;;;3.40;1.50;;;15.70;99.90;;;;;;4409343;32;20073;-77
2023/06/18 04:43:51;;;;;;;0.95;0.70;;;15.70;99.90;;;;;;4410777;32;20089;-76
2023/06/18 04:46:17;;;;;;;2.47;1.12;;;15.80;99.90;;;;;;4412223;32;20082;-75
2023/06/18 04:48:42;;;;;;;1.98;1.35;;;15.80;99.90;;;;;;4410702;32;20090;-76
2023/06/18 04:51:08;;;;;;;3.37;1.30;;;15.80;99.90;;;;;;4408000;32;20276;-75
2023/06/18 04:53:34;;;;;;;1.95;1.27;;;15.90;99.90;;;;;;4411912;32;20157;-76
2023/06/18 04:56:00;;;;;;;5.07;1.98;;;16.00;99.90;;;;;;4408163;32;21255;-75
2023/06/18 04:58:27;;;;;;;1.27;1.05;;;16.00;99.90;;;;;;4417305;32;20094;-75
2023/06/18 05:00:53;;;;;;;1.58;1.23;;;16.20;99.90;;;;;;4408663;32;20088;-76
2023/06/18 05:03:18;;;;;;;0.50;0.50;;;16.20;99.90;;;;;;4403602;32;20093;-76
2023/06/18 05:05:44;;;;;;;2.42;1.10;;;16.30;99.90;;;;;;4409234;32;20089;-77
2023/06/18 05:08:10;;;;;;;0.70;0.70;;;16.40;99.90;;;;;;4403086;32;21254;-76
2023/06/18 05:10:36;;;;;;;0.90;0.75;;;16.40;99.90;;;;;;4402445;32;20533;-77
2023/06/18 05:13:02;;;;;;;0.80;0.80;;;16.40;99.90;;;;;;4405358;32;20109;-77
2023/06/18 05:15:28;;;;;;;2.00;0.98;;;16.50;99.90;;;;;;4403632;32;20105;-76
2023/06/18 05:17:53;;;;;;;0.80;0.80;;;16.50;99.90;;;;;;4402928;32;20082;-76
2023/06/18 05:20:19;;;;;;;0.98;0.62;;;16.60;99.90;;;;;;4401536;32;20062;-76
2023/06/18 05:22:45;;;;;;;0.57;0.57;;;16.60;99.90;;;;;;4405057;32;20125;-76
2023/06/18 05:25:11;;;;;;;1.80;1.02;;;16.70;99.90;;;;;;4408328;32;20128;-76
2023/06/18 05:27:36;;;;;;;0.80;0.80;;;16.90;99.90;;;;;;4408628;32;20471;-76
2023/06/18 05:30:03;;;;;;;0.60;0.60;;;17.00;99.90;;;;;;4401474;32;20066;-76
2023/06/18 05:32:28;;;;;;;0.70;0.70;;;17.10;99.90;;;;;;4405752;32;20456;-75
2023/06/18 05:34:55;;;;;;;1.08;0.65;;;17.20;99.90;;;;;;4404679;32;20070;-76
2023/06/18 05:37:21;;;;;;;2.17;0.55;;;17.30;99.90;;;;;;4405686;32;20066;-76
2023/06/18 05:39:46;;;;;;;0.70;0.70;;;17.30;99.90;;;;;;4411629;32;20086;-76
2023/06/18 05:42:12;;;;;;;0.50;0.50;;;17.30;99.90;;;;;;4415545;32;20089;-76
2023/06/18 05:44:37;;;;;;;0.93;0.70;;;17.30;99.90;;;;;;4406560;32;20390;-75
2023/06/18 05:47:03;;;;;;;1.37;0.80;;;17.40;99.90;;;;;;4416270;32;20099;-75
2023/06/18 05:49:29;;;;;;;0.60;0.60;;;17.50;99.90;;;;;;4408509;32;20080;-77
2023/06/18 05:51:54;;;;;;;0.70;0.70;;;17.60;99.90;;;;;;4406650;32;20078;-75
2023/06/18 05:54:20;;;;;;;1.60;1.08;;;17.70;99.90;;;;;;4405303;32;20078;-77
2023/06/18 05:56:45;;;;;;;1.10;0.93;;;17.80;99.90;;;;;;4411201;32;20130;-75
2023/06/18 05:59:11;;;;;;;2.03;0.65;;;17.90;99.90;;;;;;4410815;32;20235;-75
2023/06/18 06:01:37;;;;;;;0.68;0.68;;;17.90;99.90;;;;;;4412585;32;20077;-76
2023/06/18 06:04:03;;;;;;;0.55;0.55;;;18.00;99.90;;;;;;4410290;32;20101;-76
2023/06/18 06:06:29;;;;;;;2.60;1.12;;;18.00;99.90;;;;;;4416884;32;20102;-75
2023/06/18 06:08:55;;;;;;;6.03;1.02;;;18.10;99.90;;;;;;4411837;32;20101;-76
2023/06/18 06:11:20;;;;;;;0.68;0.68;;;18.10;99.90;;;;;;4414118;32;20062;-75
2023/06/18 06:13:45;;;;;;;0.60;0.60;;;18.20;99.90;;;;;;4402887;32;20074;-76
2023/06/18 06:16:11;;;;;;;0.70;0.70;;;18.30;99.90;;;;;;4413279;32;20098;-75
2023/06/18 06:18:37;;;;;;;0.60;0.60;;;18.40;99.90;;;;;;4407729;32;20062;-75
2023/06/18 06:21:03;;;;;;;2.33;0.90;;;18.40;99.90;;;;;;4410912;32;20281;-76
2023/06/18 06:23:30;;;;;;;0.40;0.40;;;18.40;99.90;;;;;;4405343;32;20106;-75
2023/06/18 06:25:56;;;;;;;0.65;0.65;;;18.50;99.90;;;;;;4405351;32;20081;-74
2023/06/18 06:28:22;;;;;;;0.70;0.70;;;18.60;99.90;;;;;;4411253;32;20528;-75
2023/06/18 06:30:47;;;;;;;1.48;0.80;;;18.60;99.90;;;;;;4412904;32;20046;-75
2023/06/18 06:33:13;;;;;;;0.93;0.52;;;18.70;99.90;;;;;;4418053;32;20054;-76
2023/06/18 06:35:38;;;;;;;1.98;0.65;;;18.70;99.90;;;;;;4420292;32;20055;-75
2023/06/18 06:38:04;;;;;;;0.50;0.50;;;18.70;99.90;;;;;;4428644;26;20114;-65
2023/06/18 06:40:30;;;;;;;0.55;0.55;;;18.80;99.90;;;;;;4404800;32;20090;-65
2023/06/18 06:42:56;;;;;;;0.45;0.45;;;18.80;99.90;;;;;;4405861;32;20099;-66
2023/06/18 06:45:22;;;;;;;0.30;0.30;;;19.00;99.90;;;;;;4398361;32;20137;-66
2023/06/18 06:47:48;;;;;;;1.50;0.50;;;19.10;99.90;;;;;;4390405;32;20470;-64
2023/06/18 06:50:14;;;;;;;0.50;0.50;;;19.20;99.90;;;;;;4389757;32;20110;-65
2023/06/18 06:52:39;;;;;;;0.75;0.75;;;19.30;99.90;;;;;;4389604;32;20074;-64
2023/06/18 06:55:05;;;;;;;0.50;0.50;;;19.30;99.90;;;;;;4390779;32;20082;-64
2023/06/18 06:57:31;;;;;;;0.50;0.50;;;19.40;99.90;;;;;;4392319;32;20121;-64
2023/06/18 06:59:56;;;;;;;0.85;0.57;;;19.50;99.90;;;;;;4394263;32;20065;-65
2023/06/18 07:02:22;;;;;;;0.65;0.60;;;19.60;99.90;;;;;;4389862;32;20111;-65
2023/06/18 07:04:48;;;;;;;0.85;0.85;;;19.60;99.90;;;;;;4389778;32;20090;-65
2023/06/18 07:07:14;;;;;;;0.88;0.80;;;19.60;99.90;;;;;;4389563;32;20116;-64
2023/06/18 07:09:39;;;;;;;0.73;0.60;;;19.70;99.90;;;;;;4387945;32;20099;-64
2023/06/18 07:12:05;;;;;;;0.50;0.50;;;19.80;99.90;;;;;;4391761;32;20339;-65
2023/06/18 07:14:30;;;;;;;1.42;0.65;;;19.80;99.90;;;;;;4393622;32;20882;-64
2023/06/18 07:16:57;;;;;;;0.80;0.80;;;19.90;99.90;;;;;;4394720;32;20077;-65
2023/06/18 07:19:22;;;;;;;0.35;0.35;;;20.00;99.90;;;;;;4392897;32;20145;-65
2023/06/18 07:21:50;;;;;;;0.75;0.65;;;20.20;99.90;;;;;;4393404;32;20085;-66
2023/06/18 07:24:15;;;;;;;0.70;0.70;;;20.30;99.90;;;;;;4392044;32;20095;-66
2023/06/18 07:26:41;;;;;;;1.73;0.77;;;20.40;99.90;;;;;;4394116;32;20403;-66
2023/06/18 07:29:07;;;;;;;1.00;0.80;;;20.40;99.90;;;;;;4390823;32;20094;-66
2023/06/18 07:31:32;;;;;;;4.20;0.80;;;20.60;99.90;;;;;;4396590;32;20099;-66
2023/06/18 07:33:57;;;;;;;2.00;0.65;;;20.70;99.90;;;;;;4392984;32;20113;-65
2023/06/18 07:36:23;;;;;;;0.50;0.50;;;20.70;99.90;;;;;;4392368;32;20090;-65
2023/06/18 07:38:48;;;;;;;0.40;0.40;;;20.90;99.90;;;;;;4393738;32;20419;-64
2023/06/18 07:41:14;;;;;;;0.77;0.77;;;21.10;99.90;;;;;;4396477;32;20129;-65
2023/06/18 07:43:40;;;;;;;0.37;0.37;;;21.10;99.90;;;;;;4394513;32;20090;-64
2023/06/18 07:46:06;;;;;;;0.50;0.50;;;21.10;99.90;;;;;;4396796;32;20438;-65
2023/06/18 07:48:32;;;;;;;2.12;0.85;;;21.20;99.90;;;;;;4394189;32;20093;-64
2023/06/18 07:50:57;;;;;;;1.87;0.47;;;21.40;99.90;;;;;;4392064;32;20090;-65
2023/06/18 07:53:23;;;;;;;1.58;0.77;;;21.20;99.90;;;;;;4393199;32;20159;-65
2023/06/18 07:55:48;;;;;;;0.40;0.40;;;21.30;99.90;;;;;;4389619;32;20078;-65
2023/06/18 07:58:14;;;;;;;0.60;0.60;;;21.30;99.90;;;;;;4390820;32;20089;-65
2023/06/18 08:00:39;;;;;;;0.50;0.43;;;21.50;99.90;;;;;;4390406;32;20082;-65
2023/06/18 08:03:05;;;;;;;0.30;0.30;;;21.70;99.90;;;;;;4396112;32;20062;-65
2023/06/18 08:05:30;;;;;;;0.73;0.73;;;21.80;99.90;;;;;;4391753;32;20816;-65
2023/06/18 08:07:56;;;;;;;0.37;0.37;;;21.90;99.90;;;;;;4389067;32;21046;-65
2023/06/18 08:10:22;;;;;;;0.55;0.55;;;22.10;99.90;;;;;;4392476;32;20490;-65
2023/06/18 08:12:48;;;;;;;0.47;0.40;;;22.20;99.90;;;;;;4392555;32;20065;-65
2023/06/18 08:15:13;;;;;;;0.22;0.22;;;22.30;99.90;;;;;;4395516;32;20164;-65
2023/06/18 08:17:39;;;;;;;0.40;0.40;;;22.40;99.90;;;;;;4392264;32;20103;-65
2023/06/18 08:20:05;;;;;;;2.58;1.17;;;22.30;99.90;;;;;;4391415;32;20090;-64
2023/06/18 08:22:31;;;;;;;0.47;0.47;;;22.40;99.90;;;;;;4391319;32;20411;-65
2023/06/18 08:24:56;;;;;;;0.57;0.32;;;22.50;99.90;;;;;;4393702;32;20097;-65
2023/06/18 08:27:22;;;;;;;0.55;0.55;;;22.40;99.90;;;;;;4391634;32;20450;-65
2023/06/18 08:29:47;;;;;;;0.40;0.40;;;22.60;99.90;;;;;;4392900;32;20081;-65
2023/06/18 08:32:13;;;;;;;0.40;0.40;;;22.80;99.90;;;;;;4391606;32;20466;-65
2023/06/18 08:34:42;;;;;;;0.77;0.65;;;22.90;99.90;;;;;;4392502;32;20090;-65
2023/06/18 08:37:09;;;;;;;0.45;0.45;;;23.00;99.90;;;;;;4393266;32;20491;-65
2023/06/18 08:39:35;;;;;;;0.20;0.20;;;23.10;99.90;;;;;;4387046;32;20123;-65
2023/06/18 08:42:01;;;;;;;0.20;0.20;;;23.20;99.90;;;;;;4386880;32;20082;-65
2023/06/18 08:44:30;;;;;;;0.30;0.30;;;23.20;99.90;;;;;;4381010;32;20082;-66
2023/06/18 08:47:00;;;;;;;0.20;0.20;;;23.30;99.90;;;;;;4384604;32;20110;-64
2023/06/18 08:49:27;;;;;;;0.50;0.50;;;23.30;99.90;;;;;;4382622;32;20506;-65
2023/06/18 08:51:54;;;;;;;16.25;0.80;;;23.30;99.90;;;;;;4387559;32;20091;-65
2023/06/18 08:54:22;;;;;;;0.20;0.20;;;23.00;99.90;;;;;;4384142;32;21035;-65
2023/06/18 08:56:53;;;;;;;0.32;0.32;;;23.10;99.90;;;;;;4384176;32;20093;-65
2023/06/18 08:59:21;;;;;;;2.12;1.05;;;23.10;99.90;;;;;;4383537;32;20070;-65
2023/06/18 09:01:47;;;;;;;0.62;0.20;;;23.30;99.90;;;;;;4384521;32;20098;-65
2023/06/18 09:04:14;;;;;;;0.20;0.20;;;23.30;99.90;;;;;;4384323;32;20109;-65
2023/06/18 09:06:41;;;;;;;0.28;0.28;;;23.10;99.90;;;;;;4386065;32;20078;-66
2023/06/18 09:09:07;;;;;;;0.37;0.37;;;22.80;99.90;;;;;;4386328;32;20087;-65
2023/06/18 09:11:33;;;;;;;0.30;0.30;;;22.60;99.90;;;;;;4381218;32;20198;-65
2023/06/18 09:13:59;;;;;;;0.20;0.20;;;22.80;99.90;;;;;;4384132;32;20106;-65
2023/06/18 09:16:24;;;;;;;0.35;0.35;;;23.10;99.90;;;;;;4388464;32;20075;-64
2023/06/18 09:18:50;;;;;;;0.77;0.75;;;23.30;99.90;;;;;;4385866;32;20144;-65
2023/06/18 09:21:38;;;;;;;0.50;0.50;;;23.50;99.90;;;;;;4384024;32;20086;-65
2023/06/18 09:24:07;;;;;;;0.43;0.43;;;23.70;99.90;;;;;;4376686;32;20079;-65
2023/06/18 09:26:34;;;;;;;0.32;0.32;;;23.60;99.90;;;;;;4382322;32;20110;-65
2023/06/18 09:29:05;;;;;;;0.40;0.40;;;23.30;99.90;;;;;;4383996;32;20082;-65
2023/06/18 09:31:30;;;;;;;0.20;0.20;;;23.00;99.90;;;;;;4378243;32;20125;-65
2023/06/18 09:33:56;;;;;;;0.40;0.40;;;22.80;99.90;;;;;;4376578;32;20070;-64
2023/06/18 09:36:24;;;;;;;0.40;0.40;;;22.60;99.90;;;;;;4378767;32;20093;-66
2023/06/18 09:38:52;;;;;;;0.35;0.30;;;22.50;99.90;;;;;;4384937;32;20090;-65
2023/06/18 09:41:18;;;;;;;0.28;0.28;;;22.40;99.90;;;;;;4391038;32;20633;-66
2023/06/18 09:43:47;;;;;;;1.37;0.65;;;22.70;99.90;;;;;;4390544;32;20067;-66
2023/06/18 09:46:14;;;;;;;0.20;0.20;;;23.00;99.90;;;;;;4390619;32;20093;-66
2023/06/18 09:48:43;;;;;;;0.28;0.28;;;23.30;99.90;;;;;;4392360;32;20063;-66
2023/06/18 09:51:09;;;;;;;0.57;0.57;;;23.50;99.90;;;;;;4389397;32;20073;-66
2023/06/18 09:53:35;;;;;;;0.30;0.30;;;23.60;99.90;;;;;;4396231;32;20118;-66
2023/06/18 09:56:17;;;;;;;0.30;0.30;;;24.00;99.90;;;;;;4392095;32;20085;-66
2023/06/18 09:58:46;;;;;;;0.45;0.45;;;24.30;99.90;;;;;;4392125;32;20526;-66
2023/06/18 10:01:13;;;;;;;0.30;0.30;;;24.50;99.90;;;;;;4394025;32;20428;-66
2023/06/18 10:03:39;;;;;;;0.30;0.30;;;24.60;99.90;;;;;;4392698;32;20098;-66
2023/06/18 10:06:18;;;;;;;0.50;0.32;;;24.30;99.90;;;;;;4389019;32;21161;-65
2023/06/18 10:08:48;;;;;;;0.37;0.32;;;24.10;99.90;;;;;;4389095;32;20565;-66
2023/06/18 10:11:15;;;;;;;0.28;0.28;;;24.00;99.90;;;;;;4388380;32;20058;-66
2023/06/18 10:13:46;;;;;;;0.30;0.30;;;23.80;99.90;;;;;;4388760;32;20069;-66
2023/06/18 10:16:14;;;;;;;0.43;0.43;;;24.00;99.90;;;;;;4390641;32;20070;-66
2023/06/18 10:18:51;;;;;;;0.50;0.45;;;24.30;99.90;;;;;;4390438;32;20206;-65
2023/06/18 10:21:18;;;;;;;0.40;0.40;;;24.60;99.90;;;;;;4392618;32;20093;-65
2023/06/18 10:23:46;;;;;;;0.30;0.30;;;24.90;99.90;;;;;;4391428;32;20073;-67
2023/06/18 10:26:12;;;;;;;0.20;0.20;;;25.10;99.90;;;;;;4393894;32;20093;-65
2023/06/18 10:28:37;;;;;;;0.25;0.25;;;25.30;99.50;;;;;;4394753;32;20098;-66
2023/06/18 10:31:06;;;;;;;0.40;0.40;;;25.30;99.90;;;;;;4392253;32;20073;-66
2023/06/18 10:33:33;;;;;;;2.30;0.40;;;24.90;99.90;;;;;;4394634;32;20082;-66
2023/06/18 10:36:00;;;;;;;2.55;0.43;;;24.90;99.90;;;;;;4394162;32;20078;-66
2023/06/18 10:38:25;;;;;;;0.32;0.32;;;24.90;99.90;;;;;;4391557;32;20107;-66
2023/06/18 10:41:05;;;;;;;0.80;0.40;;;25.10;99.90;;;;;;4392296;32;20510;-66
2023/06/18 10:43:30;;;;;;;0.30;0.30;;;25.60;99.90;;;;;;4381361;32;20592;-66
2023/06/18 10:46:13;;;;;;;1.12;0.40;;;25.80;99.90;;;;;;4395122;32;20095;-66
2023/06/18 10:48:39;;;;;;;0.50;0.50;;;26.10;98.90;;;;;;4381393;32;20070;-66
2023/06/18 10:51:15;;;;;;;0.50;0.30;;;26.10;96.30;;;;;;4393096;32;20181;-66
2023/06/18 10:53:42;;;;;;;0.60;0.40;;;25.70;98.40;;;;;;4395894;32;20081;-66
2023/06/18 10:56:08;;;;;;;0.30;0.30;;;25.80;98.80;;;;;;4392792;32;20566;-66
2023/06/18 10:58:37;;;;;;;2.65;0.52;;;25.70;98.10;;;;;;4393638;32;20066;-66
2023/06/18 11:01:02;;;;;;;0.25;0.25;;;25.70;98.10;;;;;;4397003;32;20414;-66
2023/06/18 11:03:37;;;;;;;0.25;0.20;;;25.70;98.20;;;;;;4396671;32;20086;-66
2023/06/18 11:06:08;;;;;;;0.30;0.30;;;25.40;97.30;;;;;;4394831;32;20849;-66
2023/06/18 11:08:34;;;;;;;0.25;0.25;;;25.70;96.70;;;;;;4395094;32;20082;-66
2023/06/18 11:11:03;;;;;;;1.65;0.85;;;26.20;96.90;;;;;;4397850;32;20102;-66
2023/06/18 11:13:32;;;;;;;0.30;0.30;;;26.40;96.10;;;;;;4398553;32;20141;-66
2023/06/18 11:16:00;;;;;;;0.55;0.43;;;26.70;95.40;;;;;;4399797;32;20128;-66
2023/06/18 11:18:28;;;;;;;0.30;0.30;;;26.50;96.10;;;;;;4395614;32;20141;-66
2023/06/18 11:20:55;;;;;;;0.98;0.68;;;26.70;97.10;;;;;;4398186;32;20073;-66
2023/06/18 11:23:23;;;;;;;0.20;0.20;;;26.70;95.90;;;;;;4400543;32;20110;-66
2023/06/18 11:25:49;;;;;;;2.20;1.08;;;26.40;95.20;;;;;;4401363;32;20458;-66
2023/06/18 11:28:16;;;;;;;0.20;0.20;;;26.40;95.80;;;;;;4391777;32;20082;-66
2023/06/18 11:30:52;;;;;;;1.00;0.50;;;26.90;95.60;;;;;;4393357;32;20196;-66
2023/06/18 11:33:21;;;;;;;0.35;0.35;;;27.50;96.00;;;;;;4393174;32;20086;-66
2023/06/18 11:35:47;;;;;;;6.50;0.28;;;27.80;94.80;;;;;;4396131;32;20506;-66
2023/06/18 11:38:12;;;;;;;9.00;0.32;;;28.00;93.20;;;;;;4394946;32;20078;-66
2023/06/18 11:40:54;;;;;;;0.32;0.30;;;27.90;93.20;;;;;;4394521;32;20507;-66
2023/06/18 11:43:20;;;;;;;0.20;0.20;;;27.30;94.20;;;;;;4392834;32;20086;-66
2023/06/18 11:45:48;;;;;;;0.30;0.30;;;27.20;93.00;;;;;;4391022;32;86900;-66
2023/06/18 11:48:16;;;;;;;0.25;0.25;;;27.40;94.00;;;;;;4392113;32;20078;-66
2023/06/18 11:50:41;;;;;;;0.57;0.43;;;27.00;93.40;;;;;;4393970;32;20079;-66
2023/06/18 11:53:07;;;;;;;0.20;0.20;;;27.20;92.70;;;;;;4393466;32;20424;-66
2023/06/18 11:55:36;;;;;;;0.30;0.30;;;28.00;91.00;;;;;;4389584;32;20097;-66
2023/06/18 11:58:02;;;;;;;0.30;0.30;;;28.40;91.60;;;;;;4393154;32;20640;-66
2023/06/18 12:00:27;;;;;;;0.73;0.37;;;28.90;91.90;;;;;;4391642;32;20484;-67
2023/06/18 12:02:53;;;;;;;0.40;0.40;;;29.40;90.70;;;;;;4392598;32;20505;-67
2023/06/18 12:05:18;;;;;;;0.30;0.30;;;29.50;90.20;;;;;;4393391;32;20137;-66
2023/06/18 12:07:45;;;;;;;0.37;0.37;;;28.80;88.80;;;;;;4393144;32;20098;-66
2023/06/18 12:10:12;;;;;;;0.25;0.25;;;28.00;90.90;;;;;;4395112;32;20074;-66
2023/06/18 12:12:49;;;;;;;0.20;0.20;;;27.80;91.20;;;;;;4391178;32;20110;-66
2023/06/18 12:15:26;;;;;;;1.52;0.37;;;27.60;91.20;;;;;;4394713;32;20530;-66
2023/06/18 12:18:16;;;;;;;18.77;0.30;;;27.10;92.60;;;;;;4395956;32;20226;-66
2023/06/18 12:20:42;;;;;;;0.40;0.30;;;26.80;93.60;;;;;;4383704;32;20093;-66
2023/06/18 12:23:08;;;;;;;0.22;0.22;;;26.60;93.80;;;;;;4394415;32;20075;-66
2023/06/18 12:25:34;;;;;;;0.95;0.47;;;27.30;92.60;;;;;;4396706;32;20193;-66
2023/06/18 12:28:04;;;;;;;0.20;0.20;;;28.50;91.10;;;;;;4393280;32;20110;-66
2023/06/18 12:30:31;;;;;;;0.22;0.22;;;29.60;89.90;;;;;;4397506;32;20070;-66
2023/06/18 12:33:13;;;;;;;0.45;0.20;;;30.60;83.30;;;;;;4392287;32;20130;-66
2023/06/18 12:35:46;;;;;;;0.20;0.20;;;30.40;83.40;;;;;;4386136;32;20106;-66
2023/06/18 12:38:12;;;;;;;2.90;0.20;;;29.50;86.10;;;;;;4396952;32;20522;-65
2023/06/18 12:40:56;;;;;;;1.02;0.35;;;28.80;87.50;;;;;;4396232;32;20077;-65
2023/06/18 12:43:22;;;;;;;0.40;0.28;;;28.30;90.00;;;;;;4392191;32;20762;-65
2023/06/18 12:45:50;;;;;;;0.28;0.28;;;27.70;91.10;;;;;;4400436;32;20172;-65